createdAt,value
2023-02-07T00:06:58.372Z,971.46
2023-02-07T00:22:00.352Z,971.65
2023-02-07T00:37:02.186Z,971.68
2023-02-07T00:52:04.127Z,971.76
2023-02-07T01:07:06.099Z,971.65
2023-02-07T01:22:08.049Z,971.81
2023-02-07T01:37:10.039Z,971.97
2023-02-07T01:52:12.002Z,971.99
2023-02-07T02:07:13.950Z,971.89
2023-02-07T02:22:15.895Z,972.04
2023-02-07T02:37:17.928Z,971.74
2023-02-07T02:52:19.836Z,971.6
2023-02-07T03:07:21.745Z,971.49
2023-02-07T03:22:23.679Z,971.52
2023-02-07T03:37:25.757Z,971.32
2023-02-07T03:52:27.672Z,971.67
2023-02-07T04:07:29.597Z,971.49
2023-02-07T04:22:31.505Z,971.66
2023-02-07T04:37:33.407Z,971.55
2023-02-07T04:52:35.473Z,971.62
2023-02-07T05:07:37.418Z,971.63
2023-02-07T05:22:39.366Z,971.5
2023-02-07T05:37:41.363Z,971.68
2023-02-07T05:52:43.298Z,971.28
2023-02-07T06:07:45.282Z,971.01
2023-02-07T06:22:47.199Z,970.88
2023-02-07T06:37:49.159Z,970.68
2023-02-07T06:52:51.062Z,970.79
2023-02-07T07:07:53.032Z,970.65
2023-02-07T07:22:55.069Z,970.77
2023-02-07T07:37:56.948Z,970.78
2023-02-07T07:52:58.960Z,970.91
2023-02-07T08:08:00.899Z,970.77
2023-02-07T08:23:02.837Z,970.61
2023-02-07T08:38:04.740Z,970.58
2023-02-07T08:53:06.663Z,970.52
2023-02-07T09:08:08.576Z,970.35
2023-02-07T09:23:10.502Z,970.35
2023-02-07T09:38:12.429Z,970.34
2023-02-07T09:53:15.685Z,970.25
2023-02-07T10:08:18.450Z,970.26
2023-02-07T10:23:20.334Z,970.11
2023-02-07T10:38:22.292Z,969.91
2023-02-07T10:53:24.288Z,969.78
2023-02-07T11:08:26.255Z,969.84
2023-02-07T11:23:28.344Z,969.81
2023-02-07T11:38:30.277Z,969.66
2023-02-07T11:53:32.194Z,969.55
2023-02-07T12:08:34.085Z,969.54
2023-02-07T12:23:42.347Z,969.81
2023-02-07T12:38:44.850Z,969.76
2023-02-07T12:53:46.773Z,969.83
2023-02-07T13:08:48.726Z,969.85
2023-02-07T13:23:51.178Z,969.74
2023-02-07T13:38:53.126Z,969.71
2023-02-07T13:53:55.274Z,969.74
2023-02-07T14:08:57.441Z,969.78
2023-02-07T14:23:59.364Z,969.8
2023-02-07T14:39:01.307Z,969.77
2023-02-07T14:54:03.340Z,969.64
2023-02-07T15:09:05.359Z,969.72
2023-02-07T15:24:07.379Z,969.83
2023-02-07T15:39:09.318Z,969.76
2023-02-07T15:54:11.360Z,969.63
2023-02-07T16:09:13.281Z,969.58
2023-02-07T16:24:15.193Z,969.57
2023-02-07T16:39:17.127Z,969.57
2023-02-07T16:54:19.143Z,969.45
2023-02-07T17:09:21.091Z,969.45
2023-02-07T17:24:22.989Z,969.27
2023-02-07T17:39:24.904Z,969.23
2023-02-07T17:54:26.838Z,969.1
2023-02-07T18:09:28.771Z,969.04
2023-02-07T18:24:30.660Z,968.98
2023-02-07T18:39:32.609Z,968.78
2023-02-07T18:54:34.763Z,968.55
2023-02-07T19:09:36.786Z,968.31
2023-02-07T19:24:38.946Z,967.92
2023-02-07T19:39:40.890Z,967.59
2023-02-07T19:54:42.791Z,967.29
2023-02-07T20:09:44.755Z,967.04
2023-02-07T20:24:46.706Z,966.71
2023-02-07T20:39:48.705Z,966.35
2023-02-07T20:54:51.365Z,966.08
2023-02-07T21:09:53.776Z,965.78
2023-02-07T21:24:55.934Z,965.6
2023-02-07T21:39:57.833Z,965.49
2023-02-07T21:54:59.764Z,965.25
2023-02-07T22:10:01.773Z,965.04
2023-02-07T22:25:03.697Z,965
2023-02-07T22:40:05.609Z,964.9
2023-02-07T22:55:07.576Z,964.95
2023-02-07T23:10:09.453Z,964.87
2023-02-07T23:25:11.557Z,964.85
2023-02-07T23:40:13.534Z,964.81
2023-02-07T23:55:15.554Z,964.69
